AirNav   Everest Fuels
 
 977 users online  

0KY0 Owen Air Park
Owenton, Kentucky, USA

GOING TO OWENTON?


FAA INFORMATION EFFECTIVE 07 NOVEMBER 2019

Location

FAA Identifier: 0KY0
Lat/Long: 38-37-22.0000N 084-46-44.0000W
38-37.366667N 084-46.733333W
38.6227778,-84.7788889
(estimated)
Elevation: 890 ft. / 271 m (estimated)
From city: 7 miles NE of OWENTON, KY
Time zone: UTC -6 (UTC -5 during Daylight Saving Time)
Zip code: 40359

Airport Operations

Airport use: Private use. Permission required prior to landing
Activation date: 04/2003
Control tower: no
ARTCC: INDIANAPOLIS CENTER
FSS: LOUISVILLE FLIGHT SERVICE STATION
Attendance: UNATNDD
Wind indicator: yes
Segmented circle: no
Lights: RESTRICTED.

Airport Communications

WX AWOS-3 at K62 (19 nm E): 123.825 (859-654-1345)

Nearby radio navigation aids

VOR radial/distance  VOR name  Freq  Var
FLMr270/22.0FALMOUTH VOR/DME117.0004W
CVGr193/23.9CINCINNATI VORTAC117.3004W
FFTr016/(27.1)FRANKFORT VOR109.4003W

 
NDB name  Hdg/Dist  Freq  Var  ID
SPORTYS228/37.924504WPWF .--. .-- ..-.
CINCINNATI216/38.133504WLUK .-.. ..- -.-

Airport Services

Runway Information

Runway 13/31

Dimensions: 2300 x 80 ft. / 701 x 24 m
Surface: turf
Runway edge lights: low intensity
PILOT CONTROLLED
RUNWAY 13  RUNWAY 31
Traffic pattern: leftleft

Airport Ownership and Management from official FAA records

Ownership: Privately-owned
Owner: OWEN AIR PARK PROPERTY ASSOC.
120 PILOTS DREAM DR
DRY RIDGE, KY 41035
Phone (859) 240-5213
Manager: GEORGE KALBFLEISCH, MGR AND PRES.
120 PILOTS DREAM DRIVE
DRY RIDGE, KY 41035
Phone 859-240-5213
ADDITIONAL CONTACT - MIKE POTTS - 720-979-7250 - MIKEPOTTS@ME.COM

Airport Operational Statistics

Aircraft based on the field: 10
Single engine airplanes: 10
    
Aircraft operations: 100/year *
100% local general aviation
* for 12-month period ending 01 November 2002

Additional Remarks

100 FT PLINE 2 NM S OF AIRPORT.
FOR CD CTC CINCINNATI APCH AT 859-372-6440

Instrument Procedures

There are no published instrument procedures at 0KY0.

Some nearby airports with instrument procedures:

K62 - Gene Snyder Airport (19 nm E)
KCVG - Cincinnati/Northern Kentucky International Airport (26 nm N)
KFFT - Capital City Airport (27 nm S)
0I8 - Cynthiana-Harrison County Airport (28 nm SE)
27K - Georgetown-Scott County Regional Airport (28 nm SE)
 
Loc | Ops | Rwys | IFR | FBO | Links
Com | Nav | Svcs | Stats | Notes
Area around 0KY0 (Owen Air Park)
 
Road maps at: MapQuest Bing Google
 
Aerial photo
WARNING: Photo may not be current or correct
Aerial photo of 0KY0 (Owen Air Park)
Photo taken 21-Jun-2003

Do you have a better or more recent aerial photo of Owen Air Park that you would like to share? If so, please send us your photo.

 
Sectional chart

 
Airport distance calculator
Flying to Owen Air Park? Find the distance to fly.

From to 0KY0

Sunrise and sunset
Times for 21-Nov-2019
 Local
(UTC-6)
 Zulu
(UTC)
Morning civil twilight06:0012:00
Sunrise06:2912:29
Sunset16:2122:21
Evening civil twilight16:5022:50

Current date and time
Zulu (UTC)  22-Nov-2019 02:27:32
Local (UTC-6)  21-Nov-2019 20:27:32
 
METAR
KCVG 
26nm N 
220152Z 22011G25KT 10SM OVC017 12/08 A2997 RMK AO2 SLP148 T01220083
KFFT 
27nm S 
220153Z AUTO 22008KT 10SM OVC027 13/07 A3001 RMK AO2 SLP163 T01330067
K27K 
28nm SE 
220215Z AUTO 23004KT 10SM OVC029 11/06 A3003 RMK AO1
KIMS 
33nm W 
220218Z AUTO 21008KT 10SM OVC016 11/10 A3001 RMK AO1
KLUK 
33nm NE 
220153Z 22011KT 10SM OVC022 13/09 A2999 RMK AO2 SLP155 T01280089
KLEX 
36nm S 
220154Z 20008KT 10SM OVC029 13/06 A3003 RMK AO2 RAE0059 SLP168 P0000 T01280061
KI69 
38nm NE 
220215Z AUTO 21008G14KT 10SM OVC019 12/09 A2999 RMK AO2 T01220085
KI67 
38nm N 
220215Z AUTO 22010G15KT 10SM OVC015 12/08 A2997 RMK AO1
KHAO 
46nm N 
220153Z AUTO 23007KT 10SM OVC016 12/M01 A2998 RMK AO2 SLP152 T01221006
KJVY 
48nm W 
220215Z AUTO 21009KT 10SM BKN023 13/09 A3001 RMK AO2 T01320085
TAF
KCVG 
26nm N 
212108Z 2121/2224 21010KT P6SM VCSH OVC028 FM220100 23012G20KT P6SM VCSH OVC015 FM220600 26010KT P6SM VCSH OVC012 FM220900 31010KT P6SM VCSH OVC012 FM221400 01006KT P6SM BKN012 FM221800 01006KT P6SM SCT025
NOTAMs
Click for the latest NOTAMs
NOTAMs are issued by the DoD/FAA and will open in a separate window not controlled by AirNav.

 

 
 

Would you like to see your business listed on this page?

 If your business provides an interesting product or service to pilots, flight crews, aircraft, or users of the Owen Air Park, you should consider listing it here.  To start the listing process, click on the button below
 
Add a business
 

Other Pages about Owen Air Park

www.owenairpark.com
 
Update a link
 
Copyright © AirNav, LLC. All rights reserved. Privacy Policy  Contact